Terminal Aerodrome Forecast
Issued by NWS Grand Forks, ND

Home | Current Version | Previous Version | Graphics & Text | Print | Product List | Glossary On
Versions: 1 2 3 4 5 6 7 8 9 10 11 12 13 14 15 16 17 18 19 20 21 22 23
565
FTUS43 KFGF 060320 AAA
TAFGFK
TAF AMD
KGFK 060320Z 0603/0624 03013KT 2SM -SN OVC010
      TEMPO 0603/0605 1/4SM +SN OVC003
     FM060500 35012KT 1SM -SN OVC010
     FM061800 30026G36KT 1/2SM -SN BLSN OVC003=

USA.gov is the U.S. government's official web portal to all federal, state and local government web resources and services.